sensor_id;sensor_type;location;lat;lon;timestamp;pressure;altitude;pressure_sealevel;temperature;humidity
8585;BME280;7180;52.742;11.420;2023-06-22T00:00:39;101453.41;;;17.05;100.00
8585;BME280;7180;52.742;11.420;2023-06-22T00:03:07;101451.69;;;17.04;100.00
8585;BME280;7180;52.742;11.420;2023-06-22T00:05:32;101454.34;;;17.04;100.00
8585;BME280;7180;52.742;11.420;2023-06-22T00:07:57;101462.31;;;17.04;100.00
8585;BME280;7180;52.742;11.420;2023-06-22T00:10:22;101456.28;;;17.02;100.00
8585;BME280;7180;52.742;11.420;2023-06-22T00:12:48;101440.03;;;16.94;100.00
8585;BME280;7180;52.742;11.420;2023-06-22T00:15:13;101445.75;;;16.88;100.00
8585;BME280;7180;52.742;11.420;2023-06-22T00:17:38;101453.84;;;16.87;100.00
8585;BME280;7180;52.742;11.420;2023-06-22T00:20:04;101453.84;;;16.87;100.00
8585;BME280;7180;52.742;11.420;2023-06-22T00:22:31;101444.81;;;16.89;100.00
8585;BME280;7180;52.742;11.420;2023-06-22T00:24:56;101439.00;;;16.84;100.00
8585;BME280;7180;52.742;11.420;2023-06-22T00:27:21;101451.53;;;16.82;100.00
8585;BME280;7180;52.742;11.420;2023-06-22T00:29:47;101455.13;;;16.81;100.00
8585;BME280;7180;52.742;11.420;2023-06-22T00:32:12;101452.59;;;16.80;100.00
8585;BME280;7180;52.742;11.420;2023-06-22T00:34:37;101446.63;;;16.76;100.00
8585;BME280;7180;52.742;11.420;2023-06-22T00:37:03;101452.19;;;16.73;100.00
8585;BME280;7180;52.742;11.420;2023-06-22T00:39:28;101444.63;;;16.67;100.00
8585;BME280;7180;52.742;11.420;2023-06-22T00:41:54;101447.06;;;16.57;100.00
8585;BME280;7180;52.742;11.420;2023-06-22T00:44:19;101446.44;;;16.54;100.00
8585;BME280;7180;52.742;11.420;2023-06-22T00:46:45;101445.91;;;16.49;100.00
8585;BME280;7180;52.742;11.420;2023-06-22T00:49:10;101447.03;;;16.45;100.00
8585;BME280;7180;52.742;11.420;2023-06-22T00:51:37;101452.47;;;16.43;100.00
8585;BME280;7180;52.742;11.420;2023-06-22T00:54:03;101446.22;;;16.44;100.00
8585;BME280;7180;52.742;11.420;2023-06-22T00:56:30;101444.91;;;16.37;100.00
8585;BME280;7180;52.742;11.420;2023-06-22T00:58:57;101444.63;;;16.42;100.00
8585;BME280;7180;52.742;11.420;2023-06-22T01:01:24;101430.72;;;16.38;100.00
8585;BME280;7180;52.742;11.420;2023-06-22T01:03:50;101441.72;;;16.32;100.00
8585;BME280;7180;52.742;11.420;2023-06-22T01:06:20;101428.78;;;16.28;100.00
8585;BME280;7180;52.742;11.420;2023-06-22T01:08:57;101436.00;;;16.26;100.00
8585;BME280;7180;52.742;11.420;2023-06-22T01:11:41;101444.91;;;16.25;100.00
8585;BME280;7180;52.742;11.420;2023-06-22T01:16:58;101459.16;;;16.24;100.00
8585;BME280;7180;52.742;11.420;2023-06-22T01:19:39;101456.72;;;16.21;100.00
8585;BME280;7180;52.742;11.420;2023-06-22T01:22:10;101451.47;;;16.19;100.00
8585;BME280;7180;52.742;11.420;2023-06-22T01:25:00;101451.28;;;16.22;100.00
8585;BME280;7180;52.742;11.420;2023-06-22T01:30:11;101447.75;;;16.09;100.00
8585;BME280;7180;52.742;11.420;2023-06-22T01:32:40;101454.88;;;16.09;100.00
8585;BME280;7180;52.742;11.420;2023-06-22T01:35:07;101454.03;;;16.08;100.00
8585;BME280;7180;52.742;11.420;2023-06-22T01:37:34;101457.63;;;16.07;100.00
8585;BME280;7180;52.742;11.420;2023-06-22T01:40:01;101464.66;;;16.08;100.00
8585;BME280;7180;52.742;11.420;2023-06-22T01:42:27;101452.97;;;16.11;100.00
8585;BME280;7180;52.742;11.420;2023-06-22T01:44:53;101454.75;;;16.10;100.00
8585;BME280;7180;52.742;11.420;2023-06-22T01:47:20;101449.38;;;16.12;100.00
8585;BME280;7180;52.742;11.420;2023-06-22T01:49:46;101446.38;;;16.04;100.00
8585;BME280;7180;52.742;11.420;2023-06-22T01:52:11;101436.81;;;16.01;100.00
8585;BME280;7180;52.742;11.420;2023-06-22T01:54:38;101437.03;;;15.98;100.00
8585;BME280;7180;52.742;11.420;2023-06-22T01:57:03;101431.72;;;15.98;100.00
8585;BME280;7180;52.742;11.420;2023-06-22T01:59:34;101433.63;;;15.96;100.00
8585;BME280;7180;52.742;11.420;2023-06-22T02:02:06;101428.66;;;15.92;100.00
8585;BME280;7180;52.742;11.420;2023-06-22T02:04:39;101428.84;;;15.89;100.00
8585;BME280;7180;52.742;11.420;2023-06-22T02:07:12;101428.28;;;15.84;100.00
8585;BME280;7180;52.742;11.420;2023-06-22T02:09:42;101426.50;;;15.84;100.00
8585;BME280;7180;52.742;11.420;2023-06-22T02:12:11;101423.00;;;15.84;100.00
8585;BME280;7180;52.742;11.420;2023-06-22T02:14:38;101431.16;;;15.81;100.00
8585;BME280;7180;52.742;11.420;2023-06-22T02:17:04;101433.28;;;15.76;100.00
8585;BME280;7180;52.742;11.420;2023-06-22T02:19:35;101418.91;;;15.66;100.00
8585;BME280;7180;52.742;11.420;2023-06-22T02:22:00;101419.13;;;15.63;100.00
8585;BME280;7180;52.742;11.420;2023-06-22T02:24:26;101412.53;;;15.55;100.00
8585;BME280;7180;52.742;11.420;2023-06-22T02:26:51;101431.19;;;15.54;100.00
8585;BME280;7180;52.742;11.420;2023-06-22T02:29:16;101444.44;;;15.54;100.00
8585;BME280;7180;52.742;11.420;2023-06-22T02:31:42;101452.59;;;15.51;100.00
8585;BME280;7180;52.742;11.420;2023-06-22T02:34:07;101462.16;;;15.53;100.00
8585;BME280;7180;52.742;11.420;2023-06-22T02:36:33;101458.75;;;15.51;100.00
8585;BME280;7180;52.742;11.420;2023-06-22T02:38:58;101455.34;;;15.49;100.00
8585;BME280;7180;52.742;11.420;2023-06-22T02:41:26;101460.44;;;15.52;100.00
8585;BME280;7180;52.742;11.420;2023-06-22T02:43:51;101453.81;;;15.45;100.00
8585;BME280;7180;52.742;11.420;2023-06-22T02:46:17;101449.84;;;15.38;100.00
8585;BME280;7180;52.742;11.420;2023-06-22T02:48:42;101439.00;;;15.43;100.00
8585;BME280;7180;52.742;11.420;2023-06-22T02:51:08;101439.66;;;15.46;100.00
8585;BME280;7180;52.742;11.420;2023-06-22T02:53:33;101435.84;;;15.50;100.00
8585;BME280;7180;52.742;11.420;2023-06-22T02:55:59;101432.13;;;15.53;100.00
8585;BME280;7180;52.742;11.420;2023-06-22T02:58:26;101434.88;;;15.51;100.00
8585;BME280;7180;52.742;11.420;2023-06-22T03:00:51;101432.34;;;15.50;100.00
8585;BME280;7180;52.742;11.420;2023-06-22T03:03:18;101429.47;;;15.53;100.00
8585;BME280;7180;52.742;11.420;2023-06-22T03:05:44;101440.84;;;15.55;100.00
8585;BME280;7180;52.742;11.420;2023-06-22T03:08:09;101447.53;;;15.61;100.00
8585;BME280;7180;52.742;11.420;2023-06-22T03:10:34;101445.63;;;15.63;100.00
8585;BME280;7180;52.742;11.420;2023-06-22T03:12:59;101450.13;;;15.75;100.00
8585;BME280;7180;52.742;11.420;2023-06-22T03:15:25;101460.00;;;15.85;100.00
8585;BME280;7180;52.742;11.420;2023-06-22T03:17:51;101443.59;;;15.93;100.00
8585;BME280;7180;52.742;11.420;2023-06-22T03:20:16;101438.00;;;15.97;100.00
8585;BME280;7180;52.742;11.420;2023-06-22T03:22:41;101442.69;;;16.06;100.00
8585;BME280;7180;52.742;11.420;2023-06-22T03:25:08;101440.03;;;16.19;100.00
8585;BME280;7180;52.742;11.420;2023-06-22T03:27:41;101443.22;;;16.24;100.00
8585;BME280;7180;52.742;11.420;2023-06-22T03:30:08;101439.81;;;16.22;100.00
8585;BME280;7180;52.742;11.420;2023-06-22T03:32:34;101429.09;;;16.23;100.00
8585;BME280;7180;52.742;11.420;2023-06-22T03:34:59;101429.63;;;16.28;100.00
8585;BME280;7180;52.742;11.420;2023-06-22T03:37:26;101423.16;;;16.32;100.00
8585;BME280;7180;52.742;11.420;2023-06-22T03:39:51;101431.75;;;16.36;100.00
8585;BME280;7180;52.742;11.420;2023-06-22T03:42:17;101433.88;;;16.43;100.00
8585;BME280;7180;52.742;11.420;2023-06-22T03:44:42;101424.69;;;16.49;100.00
8585;BME280;7180;52.742;11.420;2023-06-22T03:47:07;101421.72;;;16.53;100.00
8585;BME280;7180;52.742;11.420;2023-06-22T03:49:33;101422.88;;;16.62;100.00
8585;BME280;7180;52.742;11.420;2023-06-22T03:52:00;101427.06;;;16.77;100.00
8585;BME280;7180;52.742;11.420;2023-06-22T03:54:25;101424.59;;;16.99;100.00
8585;BME280;7180;52.742;11.420;2023-06-22T03:56:51;101412.63;;;17.17;100.00
8585;BME280;7180;52.742;11.420;2023-06-22T03:59:16;101398.69;;;17.26;100.00
8585;BME280;7180;52.742;11.420;2023-06-22T04:01:41;101388.16;;;17.25;100.00
8585;BME280;7180;52.742;11.420;2023-06-22T04:04:06;101370.53;;;17.24;100.00
8585;BME280;7180;52.742;11.420;2023-06-22T04:06:32;101383.28;;;17.42;100.00
8585;BME280;7180;52.742;11.420;2023-06-22T04:08:59;101379.28;;;17.60;100.00
8585;BME280;7180;52.742;11.420;2023-06-22T04:11:25;101380.34;;;17.82;100.00
8585;BME280;7180;52.742;11.420;2023-06-22T04:13:51;101380.69;;;18.56;100.00
8585;BME280;7180;52.742;11.420;2023-06-22T04:16:16;101335.06;;;19.14;99.10
8585;BME280;7180;52.742;11.420;2023-06-22T04:18:41;101270.94;;;19.89;95.07
8585;BME280;7180;52.742;11.420;2023-06-22T04:21:07;101227.50;;;20.47;91.50
8585;BME280;7180;52.742;11.420;2023-06-22T04:23:32;101205.13;;;21.43;88.60
8585;BME280;7180;52.742;11.420;2023-06-22T04:25:57;101098.81;;;21.73;84.18
8585;BME280;7180;52.742;11.420;2023-06-22T04:28:24;101056.38;;;21.78;82.22
8585;BME280;7180;52.742;11.420;2023-06-22T04:30:49;101047.06;;;22.09;80.99
8585;BME280;7180;52.742;11.420;2023-06-22T04:33:16;101012.66;;;21.42;80.36
8585;BME280;7180;52.742;11.420;2023-06-22T04:35:44;101093.38;;;21.37;81.75
8585;BME280;7180;52.742;11.420;2023-06-22T04:38:11;101084.91;;;21.32;81.88
8585;BME280;7180;52.742;11.420;2023-06-22T04:40:38;101109.44;;;21.28;81.86
8585;BME280;7180;52.742;11.420;2023-06-22T04:43:04;101111.84;;;21.95;81.19
8585;BME280;7180;52.742;11.420;2023-06-22T04:45:31;101090.81;;;22.88;79.39
8585;BME280;7180;52.742;11.420;2023-06-22T04:47:56;101014.28;;;23.68;76.28
8585;BME280;7180;52.742;11.420;2023-06-22T04:50:21;100932.47;;;24.29;73.47
8585;BME280;7180;52.742;11.420;2023-06-22T04:52:49;100891.78;;;24.56;71.93
8585;BME280;7180;52.742;11.420;2023-06-22T04:55:14;100808.28;;;24.96;69.89
8585;BME280;7180;52.742;11.420;2023-06-22T04:57:46;100795.63;;;24.19;70.32
8585;BME280;7180;52.742;11.420;2023-06-22T05:00:16;100841.38;;;23.05;72.51
8585;BME280;7180;52.742;11.420;2023-06-22T05:02:43;100916.28;;;22.73;74.10
8585;BME280;7180;52.742;11.420;2023-06-22T05:05:10;100940.75;;;22.70;74.46
8585;BME280;7180;52.742;11.420;2023-06-22T05:07:39;100981.69;;;22.37;75.50
8585;BME280;7180;52.742;11.420;2023-06-22T05:10:08;100993.72;;;22.33;76.41
8585;BME280;7180;52.742;11.420;2023-06-22T05:12:34;101045.59;;;23.18;75.80
8585;BME280;7180;52.742;11.420;2023-06-22T05:15:00;100965.25;;;23.09;74.34
8585;BME280;7180;52.742;11.420;2023-06-22T05:17:26;100901.19;;;22.46;74.19
8585;BME280;7180;52.742;11.420;2023-06-22T05:19:51;100992.91;;;22.15;75.49
8585;BME280;7180;52.742;11.420;2023-06-22T05:22:17;101032.91;;;22.34;75.97
8585;BME280;7180;52.742;11.420;2023-06-22T05:24:43;101068.41;;;23.14;75.70
8585;BME280;7180;52.742;11.420;2023-06-22T05:27:09;101008.94;;;23.68;74.28
8585;BME280;7180;52.742;11.420;2023-06-22T05:29:36;100922.13;;;23.36;72.78
8585;BME280;7180;52.742;11.420;2023-06-22T05:32:01;100984.44;;;25.08;71.84
8585;BME280;7180;52.742;11.420;2023-06-22T05:34:27;100850.41;;;26.39;67.34
8585;BME280;7180;52.742;11.420;2023-06-22T05:36:52;100734.41;;;27.40;64.04
8585;BME280;7180;52.742;11.420;2023-06-22T05:39:17;100701.19;;;28.01;62.08
8585;BME280;7180;52.742;11.420;2023-06-22T05:41:46;100639.06;;;27.18;62.33
8585;BME280;7180;52.742;11.420;2023-06-22T05:44:11;100524.88;;;27.24;60.47
8585;BME280;7180;52.742;11.420;2023-06-22T05:46:37;100538.94;;;26.64;61.23
8585;BME280;7180;52.742;11.420;2023-06-22T05:49:02;100688.69;;;26.25;63.48
8585;BME280;7180;52.742;11.420;2023-06-22T05:51:27;100648.13;;;27.32;61.64
8585;BME280;7180;52.742;11.420;2023-06-22T05:53:53;100661.94;;;28.05;60.66
8585;BME280;7180;52.742;11.420;2023-06-22T05:56:18;100551.25;;;28.84;57.68
8585;BME280;7180;52.742;11.420;2023-06-22T05:58:44;100510.81;;;28.36;57.52
8585;BME280;7180;52.742;11.420;2023-06-22T06:01:09;100484.47;;;29.54;55.76
8585;BME280;7180;52.742;11.420;2023-06-22T06:03:34;100436.97;;;29.90;54.43
8585;BME280;7180;52.742;11.420;2023-06-22T06:06:06;100461.72;;;29.69;55.23
8585;BME280;7180;52.742;11.420;2023-06-22T06:08:31;100438.91;;;30.45;53.89
8585;BME280;7180;52.742;11.420;2023-06-22T06:10:56;100435.53;;;30.74;53.59
8585;BME280;7180;52.742;11.420;2023-06-22T06:13:22;100447.09;;;30.88;53.46
8585;BME280;7180;52.742;11.420;2023-06-22T06:15:48;100362.81;;;29.46;54.18
8585;BME280;7180;52.742;11.420;2023-06-22T06:18:13;100453.28;;;27.82;57.03
8585;BME280;7180;52.742;11.420;2023-06-22T06:20:38;100507.06;;;29.09;55.52
8585;BME280;7180;52.742;11.420;2023-06-22T06:23:03;100457.97;;;29.70;54.78
8585;BME280;7180;52.742;11.420;2023-06-22T06:25:29;100452.25;;;30.15;53.59
8585;BME280;7180;52.742;11.420;2023-06-22T06:27:54;100347.13;;;30.42;51.80
8585;BME280;7180;52.742;11.420;2023-06-22T06:30:20;100381.13;;;30.13;52.55
8585;BME280;7180;52.742;11.420;2023-06-22T06:32:46;100396.78;;;30.42;52.79
8585;BME280;7180;52.742;11.420;2023-06-22T06:35:13;100383.34;;;29.98;53.17
8585;BME280;7180;52.742;11.420;2023-06-22T06:37:40;100289.41;;;30.89;50.44
8585;BME280;7180;52.742;11.420;2023-06-22T06:40:06;100299.72;;;30.99;49.90
8585;BME280;7180;52.742;11.420;2023-06-22T06:42:43;100209.22;;;31.05;49.24
8585;BME280;7180;52.742;11.420;2023-06-22T06:45:16;100264.69;;;30.61;50.25
8585;BME280;7180;52.742;11.420;2023-06-22T06:47:41;100364.78;;;30.51;51.52
8585;BME280;7180;52.742;11.420;2023-06-22T06:50:07;100361.50;;;30.18;52.10
8585;BME280;7180;52.742;11.420;2023-06-22T06:52:33;100352.06;;;27.85;55.39
8585;BME280;7180;52.742;11.420;2023-06-22T06:54:59;100539.56;;;29.09;55.13
8585;BME280;7180;52.742;11.420;2023-06-22T06:57:24;100522.06;;;29.31;54.24
8585;BME280;7180;52.742;11.420;2023-06-22T06:59:54;100527.69;;;29.94;54.00
8585;BME280;7180;52.742;11.420;2023-06-22T07:02:19;100497.50;;;27.27;57.25
8585;BME280;7180;52.742;11.420;2023-06-22T07:04:45;100599.44;;;28.41;56.30
8585;BME280;7180;52.742;11.420;2023-06-22T07:07:11;100599.94;;;27.63;57.53
8585;BME280;7180;52.742;11.420;2023-06-22T07:09:37;100643.63;;;27.18;58.37
8585;BME280;7180;52.742;11.420;2023-06-22T07:12:02;100693.81;;;26.91;59.48
8585;BME280;7180;52.742;11.420;2023-06-22T07:14:27;100818.03;;;27.54;60.36
8585;BME280;7180;52.742;11.420;2023-06-22T07:16:53;100743.19;;;27.27;59.26
8585;BME280;7180;52.742;11.420;2023-06-22T07:19:24;100683.34;;;27.03;59.06
8585;BME280;7180;52.742;11.420;2023-06-22T07:21:50;100742.03;;;27.85;58.36
8585;BME280;7180;52.742;11.420;2023-06-22T07:24:15;100701.66;;;27.49;58.34
8585;BME280;7180;52.742;11.420;2023-06-22T07:26:41;100754.91;;;28.99;56.93
8585;BME280;7180;52.742;11.420;2023-06-22T07:29:10;100479.44;;;28.61;53.88
8585;BME280;7180;52.742;11.420;2023-06-22T07:31:36;100401.78;;;27.97;53.83
8585;BME280;7180;52.742;11.420;2023-06-22T07:34:01;100460.31;;;27.63;54.29
8585;BME280;7180;52.742;11.420;2023-06-22T07:36:26;100349.13;;;27.73;53.05
8585;BME280;7180;52.742;11.420;2023-06-22T07:38:51;100464.25;;;28.54;53.05
8585;BME280;7180;52.742;11.420;2023-06-22T07:41:17;100458.19;;;28.26;53.22
8585;BME280;7180;52.742;11.420;2023-06-22T07:43:44;100319.50;;;27.93;52.48
8585;BME280;7180;52.742;11.420;2023-06-22T07:46:09;100431.56;;;28.16;53.22
8585;BME280;7180;52.742;11.420;2023-06-22T07:48:37;100350.47;;;28.23;52.01
8585;BME280;7180;52.742;11.420;2023-06-22T07:51:02;100405.69;;;27.88;53.37
8585;BME280;7180;52.742;11.420;2023-06-22T07:53:27;100522.47;;;28.43;53.78
8585;BME280;7180;52.742;11.420;2023-06-22T07:55:53;100436.34;;;28.73;52.07
8585;BME280;7180;52.742;11.420;2023-06-22T07:58:18;100332.97;;;28.32;52.03
8585;BME280;7180;52.742;11.420;2023-06-22T08:00:45;100400.13;;;28.22;52.88
8585;BME280;7180;52.742;11.420;2023-06-22T08:03:11;100416.69;;;27.73;53.99
8585;BME280;7180;52.742;11.420;2023-06-22T08:05:36;100399.09;;;28.10;52.61
8585;BME280;7180;52.742;11.420;2023-06-22T08:08:01;100411.53;;;27.78;53.10
8585;BME280;7180;52.742;11.420;2023-06-22T08:10:26;100378.72;;;27.27;53.73
8585;BME280;7180;52.742;11.420;2023-06-22T08:12:52;100484.72;;;27.42;55.01
8585;BME280;7180;52.742;11.420;2023-06-22T08:15:17;100423.75;;;27.81;53.38
8585;BME280;7180;52.742;11.420;2023-06-22T08:17:44;100509.22;;;27.82;54.28
8585;BME280;7180;52.742;11.420;2023-06-22T08:20:10;100545.13;;;27.76;55.19
8585;BME280;7180;52.742;11.420;2023-06-22T08:22:40;100435.47;;;27.94;53.49
8585;BME280;7180;52.742;11.420;2023-06-22T08:25:06;100407.50;;;27.54;53.22
8585;BME280;7180;52.742;11.420;2023-06-22T08:27:32;100442.03;;;27.72;53.31
8585;BME280;7180;52.742;11.420;2023-06-22T08:29:58;100385.31;;;27.79;52.71
8585;BME280;7180;52.742;11.420;2023-06-22T08:32:25;100346.00;;;27.43;52.82
8585;BME280;7180;52.742;11.420;2023-06-22T08:34:52;100442.09;;;27.85;53.49
8585;BME280;7180;52.742;11.420;2023-06-22T08:37:17;100393.78;;;27.49;53.33
8585;BME280;7180;52.742;11.420;2023-06-22T08:39:42;100486.06;;;27.66;54.12
8585;BME280;7180;52.742;11.420;2023-06-22T08:42:08;100398.41;;;27.69;53.06
8585;BME280;7180;52.742;11.420;2023-06-22T08:44:33;100436.03;;;27.77;53.49
8585;BME280;7180;52.742;11.420;2023-06-22T08:46:59;100389.28;;;27.83;52.86
8585;BME280;7180;52.742;11.420;2023-06-22T08:49:24;100397.97;;;27.72;53.02
8585;BME280;7180;52.742;11.420;2023-06-22T08:51:49;100406.16;;;28.04;52.27
8585;BME280;7180;52.742;11.420;2023-06-22T08:54:17;100394.75;;;28.28;51.61
8585;BME280;7180;52.742;11.420;2023-06-22T08:56:42;100365.81;;;27.77;52.18
8585;BME280;7180;52.742;11.420;2023-06-22T08:59:09;100421.13;;;28.00;52.52
8585;BME280;7180;52.742;11.420;2023-06-22T09:01:34;100338.38;;;28.06;51.40
8585;BME280;7180;52.742;11.420;2023-06-22T09:03:59;100352.09;;;28.63;50.56
8585;BME280;7180;52.742;11.420;2023-06-22T09:06:25;100301.53;;;29.08;49.43
8585;BME280;7180;52.742;11.420;2023-06-22T09:08:50;100303.53;;;28.81;50.12
8585;BME280;7180;52.742;11.420;2023-06-22T09:11:15;100319.44;;;29.15;50.12
8585;BME280;7180;52.742;11.420;2023-06-22T09:13:41;100263.66;;;28.57;50.08
8585;BME280;7180;52.742;11.420;2023-06-22T09:16:07;100222.72;;;28.34;49.59
8585;BME280;7180;52.742;11.420;2023-06-22T09:18:34;100229.25;;;28.07;49.78
8585;BME280;7180;52.742;11.420;2023-06-22T09:21:00;100267.88;;;27.55;51.20
8585;BME280;7180;52.742;11.420;2023-06-22T09:23:25;100207.22;;;27.84;49.53
8585;BME280;7180;52.742;11.420;2023-06-22T09:25:51;100208.66;;;27.73;49.76
8585;BME280;7180;52.742;11.420;2023-06-22T09:28:16;100283.69;;;28.30;50.30
8585;BME280;7180;52.742;11.420;2023-06-22T09:30:43;100318.91;;;28.87;49.90
8585;BME280;7180;52.742;11.420;2023-06-22T09:33:09;100297.31;;;29.25;49.11
8585;BME280;7180;52.742;11.420;2023-06-22T09:35:35;100249.72;;;28.60;49.67
8585;BME280;7180;52.742;11.420;2023-06-22T09:38:00;100216.72;;;28.83;49.07
8585;BME280;7180;52.742;11.420;2023-06-22T09:40:25;100251.13;;;28.69;49.52
8585;BME280;7180;52.742;11.420;2023-06-22T09:42:51;100212.47;;;28.49;49.33
8585;BME280;7180;52.742;11.420;2023-06-22T09:45:16;100170.34;;;28.28;49.41
8585;BME280;7180;52.742;11.420;2023-06-22T09:47:41;100132.16;;;27.99;48.88
8585;BME280;7180;52.742;11.420;2023-06-22T09:50:07;100205.75;;;27.88;50.09
8585;BME280;7180;52.742;11.420;2023-06-22T09:52:33;100247.75;;;28.16;49.81
8585;BME280;7180;52.742;11.420;2023-06-22T09:54:59;100222.34;;;28.24;50.14
8585;BME280;7180;52.742;11.420;2023-06-22T09:57:24;100227.63;;;27.93;49.99
8585;BME280;7180;52.742;11.420;2023-06-22T09:59:49;100272.91;;;27.91;50.77
8585;BME280;7180;52.742;11.420;2023-06-22T10:02:14;100266.03;;;28.08;50.53
8585;BME280;7180;52.742;11.420;2023-06-22T10:04:40;100337.69;;;28.69;50.57
8585;BME280;7180;52.742;11.420;2023-06-22T10:07:05;100254.22;;;28.79;49.78
8585;BME280;7180;52.742;11.420;2023-06-22T10:09:31;100168.13;;;28.63;48.76
8585;BME280;7180;52.742;11.420;2023-06-22T10:11:56;100280.34;;;28.54;50.36
8585;BME280;7180;52.742;11.420;2023-06-22T10:14:21;100326.75;;;29.08;50.12
8585;BME280;7180;52.742;11.420;2023-06-22T10:16:48;100298.38;;;29.24;49.95
8585;BME280;7180;52.742;11.420;2023-06-22T10:19:13;100258.56;;;28.80;49.92
8585;BME280;7180;52.742;11.420;2023-06-22T10:21:38;100271.00;;;28.94;49.97
8585;BME280;7180;52.742;11.420;2023-06-22T10:24:04;100328.59;;;28.57;51.41
8585;BME280;7180;52.742;11.420;2023-06-22T10:26:35;100307.56;;;29.16;49.96
8585;BME280;7180;52.742;11.420;2023-06-22T10:29:01;100413.94;;;29.81;50.72
8585;BME280;7180;52.742;11.420;2023-06-22T10:31:26;100284.25;;;30.27;48.28
8585;BME280;7180;52.742;11.420;2023-06-22T10:33:53;100262.47;;;29.35;49.50
8585;BME280;7180;52.742;11.420;2023-06-22T10:36:18;100351.94;;;29.15;51.31
8585;BME280;7180;52.742;11.420;2023-06-22T10:38:44;100345.94;;;29.82;50.28
8585;BME280;7180;52.742;11.420;2023-06-22T10:41:09;100295.09;;;29.78;49.00
8585;BME280;7180;52.742;11.420;2023-06-22T10:43:34;100347.03;;;29.75;50.24
8585;BME280;7180;52.742;11.420;2023-06-22T10:45:59;100308.16;;;30.12;48.98
8585;BME280;7180;52.742;11.420;2023-06-22T10:48:25;100291.22;;;29.92;48.96
8585;BME280;7180;52.742;11.420;2023-06-22T10:50:50;100360.59;;;29.68;50.62
8585;BME280;7180;52.742;11.420;2023-06-22T10:53:15;100329.81;;;30.61;49.01
8585;BME280;7180;52.742;11.420;2023-06-22T10:55:41;100234.31;;;30.52;47.80
8585;BME280;7180;52.742;11.420;2023-06-22T10:58:06;100316.50;;;30.35;49.45
8585;BME280;7180;52.742;11.420;2023-06-22T11:00:31;100170.97;;;29.61;49.21
8585;BME280;7180;52.742;11.420;2023-06-22T11:02:57;100328.75;;;29.95;50.33
8585;BME280;7180;52.742;11.420;2023-06-22T11:05:23;100291.66;;;30.38;49.06
8585;BME280;7180;52.742;11.420;2023-06-22T11:07:48;100279.97;;;30.37;48.81
8585;BME280;7180;52.742;11.420;2023-06-22T11:10:14;100304.22;;;30.32;49.59
8585;BME280;7180;52.742;11.420;2023-06-22T11:12:40;100226.03;;;30.05;49.21
8585;BME280;7180;52.742;11.420;2023-06-22T11:15:06;100267.41;;;30.00;49.66
8585;BME280;7180;52.742;11.420;2023-06-22T11:17:31;100243.00;;;29.76;49.55
8585;BME280;7180;52.742;11.420;2023-06-22T11:19:56;100193.81;;;29.47;49.66
8585;BME280;7180;52.742;11.420;2023-06-22T11:22:22;100287.13;;;29.20;50.74
8585;BME280;7180;52.742;11.420;2023-06-22T11:24:47;100245.00;;;29.55;49.65
8585;BME280;7180;52.742;11.420;2023-06-22T11:27:13;100290.06;;;29.81;50.12
8585;BME280;7180;52.742;11.420;2023-06-22T11:29:38;100288.16;;;30.06;49.56
8585;BME280;7180;52.742;11.420;2023-06-22T11:32:06;100308.38;;;30.10;49.30
8585;BME280;7180;52.742;11.420;2023-06-22T11:34:33;100243.69;;;30.14;48.44
8585;BME280;7180;52.742;11.420;2023-06-22T11:36:58;100288.88;;;29.39;50.84
8585;BME280;7180;52.742;11.420;2023-06-22T11:39:23;100273.06;;;29.68;50.24
8585;BME280;7180;52.742;11.420;2023-06-22T11:41:49;100259.31;;;29.94;49.49
8585;BME280;7180;52.742;11.420;2023-06-22T11:44:14;100207.31;;;29.54;49.40
8585;BME280;7180;52.742;11.420;2023-06-22T11:46:39;100263.56;;;29.58;49.90
8585;BME280;7180;52.742;11.420;2023-06-22T11:49:05;100281.50;;;29.53;50.61
8585;BME280;7180;52.742;11.420;2023-06-22T11:51:30;100232.53;;;29.23;50.20
8585;BME280;7180;52.742;11.420;2023-06-22T11:53:56;100293.28;;;29.40;50.53
8585;BME280;7180;52.742;11.420;2023-06-22T11:56:22;100350.97;;;29.41;51.41
8585;BME280;7180;52.742;11.420;2023-06-22T11:58:47;100229.97;;;28.97;50.85
8585;BME280;7180;52.742;11.420;2023-06-22T12:01:13;100274.69;;;29.06;50.90
8585;BME280;7180;52.742;11.420;2023-06-22T12:03:40;100329.81;;;28.74;52.02
8585;BME280;7180;52.742;11.420;2023-06-22T12:06:05;100324.66;;;28.33;52.61
8585;BME280;7180;52.742;11.420;2023-06-22T12:08:30;100352.72;;;28.26;52.88
8585;BME280;7180;52.742;11.420;2023-06-22T12:10:55;100336.94;;;28.10;52.81
8585;BME280;7180;52.742;11.420;2023-06-22T12:13:21;100371.03;;;28.04;53.32
8585;BME280;7180;52.742;11.420;2023-06-22T12:15:46;100390.59;;;28.06;53.64
8585;BME280;7180;52.742;11.420;2023-06-22T12:18:11;100384.75;;;27.96;53.30
8585;BME280;7180;52.742;11.420;2023-06-22T12:20:39;100388.66;;;27.68;53.83
8585;BME280;7180;52.742;11.420;2023-06-22T12:23:04;100408.78;;;27.65;54.13
8585;BME280;7180;52.742;11.420;2023-06-22T12:25:29;100421.41;;;27.51;54.54
8585;BME280;7180;52.742;11.420;2023-06-22T12:27:55;100431.25;;;27.72;54.43
8585;BME280;7180;52.742;11.420;2023-06-22T12:30:20;100410.81;;;27.50;54.48
8585;BME280;7180;52.742;11.420;2023-06-22T12:32:45;100454.31;;;27.27;54.96
8585;BME280;7180;52.742;11.420;2023-06-22T12:35:11;100458.84;;;27.20;55.22
8585;BME280;7180;52.742;11.420;2023-06-22T12:37:40;100498.81;;;27.04;56.50
8585;BME280;7180;52.742;11.420;2023-06-22T12:40:06;100482.66;;;27.10;55.81
8585;BME280;7180;52.742;11.420;2023-06-22T12:42:32;100483.59;;;26.96;56.58
8585;BME280;7180;52.742;11.420;2023-06-22T12:44:57;100519.44;;;26.90;56.80
8585;BME280;7180;52.742;11.420;2023-06-22T12:47:22;100497.69;;;26.92;56.47
8585;BME280;7180;52.742;11.420;2023-06-22T12:49:48;100505.97;;;26.90;56.81
8585;BME280;7180;52.742;11.420;2023-06-22T12:52:13;100528.72;;;26.81;57.06
8585;BME280;7180;52.742;11.420;2023-06-22T12:54:38;100599.22;;;26.72;58.47
8585;BME280;7180;52.742;11.420;2023-06-22T12:57:04;100637.91;;;26.64;59.43